Time;durP1;ratioP1;P1;durP2;ratioP2;P2;SDS_P1;SDS_P2;PMS_P1;PMS_P2;Temp;Humidity;BMP_temperature;BMP_pressure;BME280_temperature;BME280_humidity;BME280_pressure;Samples;Min_cycle;Max_cycle;Signal;HPM_P1;HPM_P2
2022/03/16 00:00:57;;;;;;;25.38;18.58;;;;;;;3.14;99.20;101825.94;4999955;28;20081;-82
2022/03/16 00:03:25;;;;;;;25.95;18.35;;;;;;;3.22;98.83;101855.66;5000312;28;20472;-82
2022/03/16 00:05:54;;;;;;;27.35;19.10;;;;;;;3.05;99.32;101834.16;4999886;28;20475;-83
2022/03/16 00:08:21;;;;;;;24.05;18.42;;;;;;;3.01;99.07;101836.06;4995009;28;20038;-82
2022/03/16 00:14:14;;;;;;;24.83;18.48;;;;;;;3.00;99.35;101861.09;4991264;28;20057;-84
2022/03/16 00:16:42;;;;;;;24.67;18.63;;;;;;;3.03;99.31;101856.69;4998529;28;20065;-82
2022/03/16 00:19:10;;;;;;;25.65;19.05;;;;;;;3.02;99.20;101844.66;4999439;28;20054;-82
2022/03/16 00:21:37;;;;;;;23.90;18.63;;;;;;;2.98;98.93;101839.66;4983522;28;20186;-82
2022/03/16 00:24:05;;;;;;;24.88;18.58;;;;;;;2.95;99.28;101851.88;4981664;28;20051;-83
2022/03/16 00:26:38;;;;;;;27.65;19.25;;;;;;;2.84;99.11;101834.31;4980175;28;20058;-82
2022/03/16 00:29:05;;;;;;;29.95;19.02;;;;;;;2.86;99.31;101842.84;4979917;28;20774;-82
2022/03/16 00:31:35;;;;;;;27.58;18.98;;;;;;;2.78;99.01;101826.91;4979390;28;20081;-80
2022/03/16 00:34:02;;;;;;;25.20;18.73;;;;;;;2.84;99.08;101843.81;4981317;28;20050;-82
2022/03/16 00:36:29;;;;;;;25.95;19.98;;;;;;;2.87;99.11;101847.09;4980437;28;20055;-82
2022/03/16 00:38:56;;;;;;;27.83;20.25;;;;;;;2.81;99.15;101844.00;4979054;28;20141;-82
2022/03/16 00:41:22;;;;;;;27.20;19.65;;;;;;;2.82;99.56;101836.19;4983243;28;20513;-81
2022/03/16 00:44:21;;;;;;;23.83;18.85;;;;;;;2.69;99.56;101824.78;4989032;28;20074;-80
2022/03/16 00:46:50;;;;;;;25.60;19.80;;;;;;;2.67;99.54;101836.94;4967788;29;20051;-84
2022/03/16 00:49:19;;;;;;;30.55;20.95;;;;;;;2.71;100.00;101838.47;4963126;29;20071;-81
2022/03/16 00:51:49;;;;;;;31.20;20.85;;;;;;;2.71;100.00;101838.47;4975909;28;20061;-82
2022/03/16 00:54:17;;;;;;;26.98;20.08;;;;;;;2.61;99.90;101842.41;4983932;28;20157;-80
2022/03/16 00:56:44;;;;;;;29.90;20.58;;;;;;;2.53;99.64;101840.19;4983681;28;20066;-80
2022/03/16 00:59:10;;;;;;;25.63;19.85;;;;;;;2.56;99.61;101850.38;4985476;28;20063;-82
2022/03/16 01:01:37;;;;;;;29.20;21.10;;;;;;;2.58;100.00;101839.97;4988732;28;20058;-81
2022/03/16 01:04:05;;;;;;;30.60;20.88;;;;;;;2.59;99.86;101855.41;4988656;28;20054;-81
2022/03/16 01:06:32;;;;;;;29.73;19.92;;;;;;;2.55;99.97;101853.88;4981146;28;20062;-81
2022/03/16 01:09:00;;;;;;;30.17;20.95;;;;;;;2.56;99.76;101847.78;4983429;28;20061;-82
2022/03/16 01:11:27;;;;;;;27.40;20.40;;;;;;;2.65;99.76;101855.09;4986691;28;20054;-82
2022/03/16 01:13:54;;;;;;;27.88;20.50;;;;;;;2.50;99.55;101845.50;4983988;28;20051;-83
2022/03/16 01:16:41;;;;;;;28.55;20.25;;;;;;;2.28;99.88;101829.38;4981538;28;20498;-81
2022/03/16 01:19:12;;;;;;;26.83;20.63;;;;;;;2.23;99.52;101821.84;4974941;28;20063;-81
2022/03/16 01:21:39;;;;;;;30.52;21.83;;;;;;;2.18;100.00;101810.91;4976371;28;20053;-82
2022/03/16 01:24:07;;;;;;;29.70;21.73;;;;;;;2.27;100.00;101828.56;4978772;28;20062;-83
2022/03/16 01:26:35;;;;;;;29.75;21.83;;;;;;;2.36;100.00;101836.78;4980022;28;20047;-81
2022/03/16 01:29:07;;;;;;;33.83;22.63;;;;;;;2.31;100.00;101822.31;4979807;28;20050;-82
2022/03/16 01:31:39;;;;;;;35.85;23.27;;;;;;;2.26;100.00;101821.72;4980731;28;20505;-81
2022/03/16 01:34:07;;;;;;;33.72;22.27;;;;;;;2.27;100.00;101807.88;4989599;28;20109;-83
2022/03/16 01:36:37;;;;;;;29.55;21.83;;;;;;;2.39;100.00;101836.59;4982311;28;20073;-83
2022/03/16 01:39:06;;;;;;;29.40;21.50;;;;;;;2.26;100.00;101808.81;4987101;28;20153;-82
2022/03/16 01:41:33;;;;;;;34.15;23.88;;;;;;;2.27;100.00;101809.63;4989479;28;20042;-84
2022/03/16 01:44:00;;;;;;;31.83;23.02;;;;;;;2.44;100.00;101824.28;4982361;28;20047;-82
2022/03/16 01:46:43;;;;;;;32.58;22.25;;;;;;;2.39;100.00;101800.44;4976915;28;20063;-85
2022/03/16 01:49:14;;;;;;;;;;;;;;;2.74;100.00;101822.81;4960749;28;20047;-82
2022/03/16 01:51:47;;;;;;;33.25;22.45;;;;;;;2.60;100.00;101809.72;4982174;28;19961;-82
2022/03/16 01:54:14;;;;;;;33.45;23.15;;;;;;;2.52;100.00;101804.09;4982631;28;20085;-84
2022/03/16 01:56:46;;;;;;;32.85;23.13;;;;;;;2.64;100.00;101819.00;4981920;28;20062;-83
2022/03/16 01:59:13;;;;;;;34.22;22.45;;;;;;;2.54;100.00;101815.19;4981251;28;20047;-82
2022/03/16 02:01:39;;;;;;;35.97;23.08;;;;;;;2.53;100.00;101811.75;4982515;28;20066;-82
2022/03/16 02:04:06;;;;;;;33.92;22.58;;;;;;;2.60;100.00;101815.72;4982553;28;20050;-84
2022/03/16 02:09:39;;;;;;;37.58;23.15;;;;;;;2.66;100.00;101809.41;4982961;28;20307;-84
2022/03/16 02:12:18;;;;;;;34.30;23.27;;;;;;;2.74;100.00;101825.38;4983301;28;20126;-82
2022/03/16 02:14:47;;;;;;;34.72;23.15;;;;;;;2.56;100.00;101800.44;4982783;28;20060;-82
2022/03/16 02:17:15;;;;;;;34.92;22.95;;;;;;;2.54;100.00;101818.59;4983069;28;20050;-83
2022/03/16 02:19:42;;;;;;;32.88;21.55;;;;;;;2.50;100.00;101814.50;4988140;28;20521;-83
2022/03/16 02:22:14;;;;;;;33.08;23.13;;;;;;;2.53;100.00;101822.09;4989176;28;20054;-84
2022/03/16 02:24:45;;;;;;;34.75;23.05;;;;;;;2.43;100.00;101807.13;4985970;28;20323;-82
2022/03/16 02:27:12;;;;;;;38.55;22.75;;;;;;;2.34;100.00;101805.84;4980907;28;20051;-83
2022/03/16 02:29:41;;;;;;;32.05;22.13;;;;;;;2.34;100.00;101818.75;4980577;28;20067;-83
2022/03/16 02:32:24;;;;;;;34.55;21.98;;;;;;;2.10;100.00;101802.69;4980448;28;20051;-82
2022/03/16 02:34:51;;;;;;;31.60;22.15;;;;;;;2.20;100.00;101816.84;4980883;28;20517;-81
2022/03/16 02:37:17;;;;;;;31.77;21.98;;;;;;;1.95;100.00;101787.91;4982449;28;20138;-82
2022/03/16 02:39:47;;;;;;;32.83;22.00;;;;;;;2.03;100.00;101814.22;4980721;28;20063;-82
2022/03/16 02:42:16;;;;;;;28.50;20.13;;;;;;;1.97;100.00;101809.34;4981413;28;20047;-82
2022/03/16 02:44:46;;;;;;;30.10;21.20;;;;;;;1.81;100.00;101792.91;4981072;28;20050;-79
2022/03/16 02:47:12;;;;;;;34.97;22.10;;;;;;;2.00;100.00;101819.50;4983981;28;20082;-83
2022/03/16 02:49:40;;;;;;;35.97;23.65;;;;;;;1.98;100.00;101806.69;4981805;28;20551;-83
2022/03/16 02:52:07;;;;;;;35.47;22.98;;;;;;;2.09;100.00;101807.91;4981101;28;20051;-80
2022/03/16 02:54:34;;;;;;;34.92;23.40;;;;;;;1.98;100.00;101811.84;4979578;28;20046;-80
2022/03/16 02:57:02;;;;;;;34.72;22.17;;;;;;;1.90;100.00;101818.25;4979806;28;20061;-83
2022/03/16 02:59:29;;;;;;;33.38;23.17;;;;;;;1.84;100.00;101813.41;4979131;28;20118;-82
2022/03/16 03:01:56;;;;;;;35.50;23.60;;;;;;;1.84;100.00;101819.41;4979279;28;20471;-81
2022/03/16 03:04:22;;;;;;;34.35;21.83;;;;;;;1.86;100.00;101827.94;4980275;28;20137;-81
2022/03/16 03:06:49;;;;;;;32.35;22.42;;;;;;;1.90;100.00;101824.25;4980414;28;20133;-80
2022/03/16 03:09:15;;;;;;;32.35;22.08;;;;;;;1.81;100.00;101810.97;4980017;28;20549;-82
2022/03/16 03:11:42;;;;;;;32.90;22.85;;;;;;;1.78;100.00;101821.44;4979446;28;20122;-79
2022/03/16 03:14:12;;;;;;;33.03;22.73;;;;;;;1.74;100.00;101817.31;4977538;28;20561;-80
2022/03/16 03:16:39;;;;;;;37.75;23.55;;;;;;;1.72;100.00;101819.97;4978703;28;20077;-82
2022/03/16 03:19:06;;;;;;;33.92;22.50;;;;;;;1.71;100.00;101817.47;4984346;28;20417;-82
2022/03/16 03:21:33;;;;;;;37.78;24.17;;;;;;;1.79;100.00;101816.22;4986097;28;20051;-82
2022/03/16 03:24:00;;;;;;;38.10;23.85;;;;;;;1.77;100.00;101819.75;4987887;28;20050;-82
2022/03/16 03:26:26;;;;;;;36.58;24.33;;;;;;;1.80;100.00;101833.38;4989088;28;20085;-83
2022/03/16 03:28:53;;;;;;;38.63;24.80;;;;;;;1.81;100.00;101829.03;4988969;28;20042;-81
2022/03/16 03:31:21;;;;;;;37.08;25.02;;;;;;;1.82;100.00;101821.22;4990439;28;20051;-82
2022/03/16 03:33:48;;;;;;;37.97;24.83;;;;;;;1.83;100.00;101828.06;4989304;28;20051;-80
2022/03/16 03:36:14;;;;;;;38.63;24.67;;;;;;;1.79;100.00;101830.84;4980337;28;20110;-82
2022/03/16 03:38:41;;;;;;;41.40;25.83;;;;;;;1.83;100.00;101832.38;4979340;28;20133;-81
2022/03/16 03:41:07;;;;;;;42.35;26.90;;;;;;;1.81;100.00;101841.94;4979808;28;20133;-82
2022/03/16 03:43:34;;;;;;;39.78;25.33;;;;;;;1.79;100.00;101836.00;4984384;28;20074;-82
2022/03/16 03:46:00;;;;;;;41.85;26.65;;;;;;;1.80;100.00;101832.53;4978432;28;20082;-81
2022/03/16 03:48:29;;;;;;;39.88;25.15;;;;;;;1.79;100.00;101838.59;4977329;28;20074;-81
2022/03/16 03:50:55;;;;;;;42.85;26.15;;;;;;;1.72;100.00;101830.28;4978315;28;20047;-81
2022/03/16 03:53:22;;;;;;;41.00;26.27;;;;;;;1.74;100.00;101828.47;4978606;28;20477;-80
2022/03/16 03:55:48;;;;;;;41.63;26.92;;;;;;;1.69;100.00;101830.44;4977588;28;20588;-81
2022/03/16 03:58:17;;;;;;;43.17;26.05;;;;;;;1.69;100.00;101824.44;4978168;28;20082;-80
2022/03/16 04:00:44;;;;;;;43.33;27.05;;;;;;;1.63;100.00;101831.53;4977819;28;20130;-81
2022/03/16 04:03:11;;;;;;;43.42;26.45;;;;;;;1.63;100.00;101844.44;4979607;28;20057;-82
2022/03/16 04:05:39;;;;;;;43.80;27.50;;;;;;;1.63;100.00;101833.28;4979084;28;20097;-82
2022/03/16 04:08:05;;;;;;;43.30;27.35;;;;;;;1.60;100.00;101836.00;4979161;28;20061;-82
2022/03/16 04:10:32;;;;;;;42.67;26.80;;;;;;;1.54;100.00;101825.97;4978922;28;20526;-82
2022/03/16 04:12:59;;;;;;;42.75;26.60;;;;;;;1.50;100.00;101835.56;4978165;28;20061;-82
2022/03/16 04:15:25;;;;;;;46.03;26.85;;;;;;;1.55;100.00;101832.78;4978041;28;20467;-82
2022/03/16 04:17:52;;;;;;;46.95;28.30;;;;;;;1.70;100.00;101837.25;4977425;28;20047;-81
2022/03/16 04:20:18;;;;;;;48.88;29.33;;;;;;;1.67;100.00;101840.81;4977752;28;20525;-82
2022/03/16 04:22:46;;;;;;;46.05;28.67;;;;;;;1.64;100.00;101834.97;4978008;28;20492;-80
2022/03/16 04:25:13;;;;;;;48.33;27.40;;;;;;;1.57;100.00;101831.81;4977972;28;20061;-81
2022/03/16 04:27:40;;;;;;;46.95;27.77;;;;;;;1.54;100.00;101839.69;4978065;28;20047;-82
2022/03/16 04:30:07;;;;;;;53.45;28.85;;;;;;;1.46;100.00;101844.34;4977529;28;20101;-83
2022/03/16 04:32:34;;;;;;;45.70;27.77;;;;;;;1.50;100.00;101835.56;4978083;28;20160;-81
2022/03/16 04:35:01;;;;;;;47.13;28.48;;;;;;;1.41;100.00;101832.59;4978439;28;20082;-85
2022/03/16 04:37:28;;;;;;;50.05;27.95;;;;;;;1.43;100.00;101833.34;4978693;28;20062;-82
2022/03/16 04:39:56;;;;;;;56.45;31.25;;;;;;;1.51;100.00;101842.41;4980529;28;20046;-80
2022/03/16 04:42:22;;;;;;;53.42;30.02;;;;;;;1.54;100.00;101833.69;4984754;28;20115;-81
2022/03/16 04:44:49;;;;;;;58.03;31.20;;;;;;;1.55;100.00;101836.22;4981757;28;20078;-80
2022/03/16 04:47:15;;;;;;;51.53;28.77;;;;;;;1.47;100.00;101833.13;4984936;28;20078;-81
2022/03/16 04:49:42;;;;;;;55.08;28.92;;;;;;;1.41;100.00;101840.31;4979226;28;20051;-81
2022/03/16 04:52:09;;;;;;;53.67;29.73;;;;;;;1.40;100.00;101831.75;4984335;28;20055;-80
2022/03/16 04:54:35;;;;;;;52.28;30.48;;;;;;;1.42;100.00;101837.66;4986461;28;20146;-79
2022/03/16 04:57:04;;;;;;;58.55;29.80;;;;;;;1.37;100.00;101834.47;4980985;28;20055;-82
2022/03/16 04:59:30;;;;;;;58.65;31.83;;;;;;;1.31;100.00;101835.56;4978677;28;20130;-82
2022/03/16 05:01:57;;;;;;;62.63;31.63;;;;;;;1.34;100.00;101834.59;4980567;28;20110;-81
2022/03/16 05:04:23;;;;;;;63.45;32.78;;;;;;;1.39;100.00;101835.25;4981196;28;20141;-82
2022/03/16 05:06:50;;;;;;;67.60;33.67;;;;;;;1.43;100.00;101834.16;4978241;28;20078;-82
2022/03/16 05:09:17;;;;;;;68.53;33.03;;;;;;;1.46;100.00;101833.19;4978899;28;20133;-83
2022/03/16 05:11:44;;;;;;;69.20;32.85;;;;;;;1.40;100.00;101834.34;4979997;28;20086;-85
2022/03/16 05:14:15;;;;;;;62.55;30.40;;;;;;;1.38;100.00;101830.97;4981371;28;20067;-84
2022/03/16 05:16:42;;;;;;;66.78;34.28;;;;;;;1.31;100.00;101829.56;4963971;28;20046;-84
2022/03/16 05:19:08;;;;;;;67.20;32.15;;;;;;;1.26;100.00;101841.84;4978410;28;20134;-82
2022/03/16 05:21:35;;;;;;;68.53;32.35;;;;;;;1.25;100.00;101843.56;5013812;23;20153;-84
2022/03/16 05:24:02;;;;;;;74.63;32.55;;;;;;;1.32;100.00;101841.56;5002272;28;20085;-85
2022/03/16 05:26:31;;;;;;;70.55;32.45;;;;;;;1.35;100.00;101844.00;5003722;28;20112;-85
2022/03/16 05:28:58;;;;;;;67.28;31.55;;;;;;;1.29;100.00;101841.69;5003670;28;20142;-83
2022/03/16 05:31:26;;;;;;;72.07;32.55;;;;;;;1.17;100.00;101825.00;5002759;28;20054;-81
2022/03/16 05:33:52;;;;;;;69.72;32.80;;;;;;;1.27;100.00;101830.63;5000921;28;20046;-81
2022/03/16 05:36:19;;;;;;;83.25;33.75;;;;;;;1.21;100.00;101820.56;5000228;28;20497;-80
2022/03/16 05:38:46;;;;;;;83.57;33.83;;;;;;;1.32;100.00;101841.56;5000464;28;20054;-83
2022/03/16 05:41:14;;;;;;;75.78;32.78;;;;;;;1.20;100.00;101826.63;5001462;28;20562;-83
2022/03/16 05:43:41;;;;;;;74.28;32.67;;;;;;;1.20;100.00;101844.66;5000136;28;20042;-82
2022/03/16 05:46:08;;;;;;;75.22;31.67;;;;;;;1.21;100.00;101846.34;4999524;28;20046;-81
2022/03/16 05:48:37;;;;;;;77.82;32.80;;;;;;;1.28;100.00;101865.81;4998986;28;20101;-83
2022/03/16 05:51:03;;;;;;;69.82;32.10;;;;;;;1.27;100.00;101864.13;5000035;28;20064;-82
2022/03/16 05:53:32;;;;;;;75.10;32.92;;;;;;;1.31;100.00;101869.09;5000350;28;20082;-83
2022/03/16 05:55:59;;;;;;;73.72;32.90;;;;;;;1.32;100.00;101867.34;4999183;28;20046;-85
2022/03/16 05:58:29;;;;;;;72.28;31.48;;;;;;;1.35;100.00;101866.38;4999702;28;20109;-82
2022/03/16 06:00:56;;;;;;;72.38;32.10;;;;;;;1.38;100.00;101866.25;5000721;28;20089;-82
2022/03/16 06:03:26;;;;;;;73.03;32.85;;;;;;;1.47;100.00;101864.09;5001821;28;20046;-84
2022/03/16 06:05:54;;;;;;;73.65;31.30;;;;;;;1.52;100.00;101858.72;5001227;28;20073;-86
2022/03/16 06:08:24;;;;;;;63.00;30.73;;;;;;;1.71;100.00;101848.44;5003544;28;20065;-83
2022/03/16 06:10:55;;;;;;;66.70;31.08;;;;;;;1.73;100.00;101836.28;5002390;28;20054;-83
2022/03/16 06:13:29;;;;;;;65.75;30.98;;;;;;;1.91;100.00;101859.50;5002724;28;20046;-85
2022/03/16 06:15:57;;;;;;;56.30;30.40;;;;;;;1.92;100.00;101843.09;5001614;28;20066;-84
2022/03/16 06:18:27;;;;;;;55.45;30.52;;;;;;;2.07;100.00;101841.56;5003998;28;20108;-83
2022/03/16 06:21:00;;;;;;;52.90;28.33;;;;;;;2.26;100.00;101847.53;5004040;28;20046;-83
2022/03/16 06:26:46;;;;;;;48.97;26.73;;;;;;;2.39;100.00;101844.34;5004042;28;20066;-85
2022/03/16 06:29:17;;;;;;;46.05;24.95;;;;;;;2.56;100.00;101841.78;4985500;28;20080;-83
2022/03/16 06:31:44;;;;;;;43.30;24.88;;;;;;;2.89;100.00;101845.28;5005574;28;20129;-83
2022/03/16 06:34:11;;;;;;;39.47;24.58;;;;;;;2.97;99.89;101847.47;5005326;28;20072;-83
2022/03/16 06:36:40;;;;;;;40.38;25.05;;;;;;;3.15;99.61;101866.41;5003065;28;20054;-85
2022/03/16 06:39:07;;;;;;;34.70;22.17;;;;;;;3.18;98.15;101861.06;5001950;28;20050;-84
2022/03/16 06:41:34;;;;;;;32.85;20.50;;;;;;;3.30;96.92;101873.38;5002435;28;20050;-82
2022/03/16 06:44:01;;;;;;;30.65;20.73;;;;;;;3.33;97.48;101868.88;5002330;28;20098;-82
2022/03/16 06:46:31;;;;;;;32.42;19.60;;;;;;;3.57;96.48;101869.34;5002432;28;20138;-82
2022/03/16 06:49:00;;;;;;;27.58;18.15;;;;;;;3.75;95.34;101861.53;5004300;28;20050;-84
2022/03/16 06:51:27;;;;;;;32.03;19.42;;;;;;;3.75;94.18;101866.72;5008155;28;20054;-83
2022/03/16 06:54:09;;;;;;;28.23;18.85;;;;;;;3.93;93.50;101879.47;5010312;28;20081;-82
2022/03/16 06:56:36;;;;;;;32.88;18.77;;;;;;;3.66;94.60;101861.09;5010630;28;20050;-82
2022/03/16 06:59:03;;;;;;;31.77;19.63;;;;;;;3.83;94.26;101861.94;5008706;28;20082;-83
2022/03/16 07:01:47;;;;;;;31.63;19.75;;;;;;;3.78;93.94;101858.78;5007986;28;20050;-83
2022/03/16 07:04:14;;;;;;;30.83;18.83;;;;;;;4.02;93.40;101866.97;5008780;28;20050;-83
2022/03/16 07:06:41;;;;;;;32.70;19.67;;;;;;;3.96;93.86;101850.00;5008026;28;20085;-84
2022/03/16 07:09:09;;;;;;;31.67;21.13;;;;;;;3.98;94.29;101861.09;5006132;28;20066;-86
2022/03/16 07:11:36;;;;;;;34.40;21.85;;;;;;;3.96;94.44;101850.00;5005421;28;20077;-83
2022/03/16 07:16:47;;;;;;;36.92;21.27;;;;;;;4.40;92.59;101854.47;5005637;28;20148;-83
2022/03/16 07:19:14;;;;;;;35.13;21.52;;;;;;;4.65;91.50;101857.34;5002269;28;20051;-82
2022/03/16 07:21:41;;;;;;;35.47;22.42;;;;;;;4.55;91.61;101861.38;5001362;28;20579;-82
2022/03/16 07:24:09;;;;;;;32.30;21.35;;;;;;;4.42;91.54;101850.03;5001804;28;20073;-82
2022/03/16 07:26:35;;;;;;;36.45;24.50;;;;;;;4.34;92.08;101848.69;5000648;28;20086;-82
2022/03/16 07:29:02;;;;;;;35.70;23.27;;;;;;;4.56;91.50;101831.94;4999940;28;20046;-83
2022/03/16 07:31:29;;;;;;;36.50;23.77;;;;;;;4.80;91.17;101840.88;5001286;28;20057;-82
2022/03/16 07:33:57;;;;;;;36.60;24.02;;;;;;;5.05;89.30;101853.25;5001819;28;20081;-82
2022/03/16 07:36:24;;;;;;;38.25;24.48;;;;;;;5.09;89.43;101840.94;5001636;28;20050;-84
2022/03/16 07:38:51;;;;;;;37.45;23.67;;;;;;;5.43;89.25;101852.72;4999790;28;20057;-80
2022/03/16 07:41:19;;;;;;;34.60;23.08;;;;;;;5.71;87.07;101844.06;5000782;28;20070;-82
2022/03/16 07:43:46;;;;;;;36.63;23.00;;;;;;;5.93;85.99;101854.81;4998603;28;20100;-82
2022/03/16 07:46:12;;;;;;;35.65;22.90;;;;;;;5.84;85.95;101855.34;4998847;28;20050;-82
2022/03/16 07:48:43;;;;;;;31.38;21.45;;;;;;;5.71;86.61;101870.03;4997457;28;20097;-83
2022/03/16 07:51:10;;;;;;;34.60;22.48;;;;;;;5.82;86.40;101859.81;4997838;28;20129;-83
2022/03/16 07:53:36;;;;;;;34.35;21.77;;;;;;;5.86;85.92;101853.50;5000536;28;20057;-84
2022/03/16 07:56:03;;;;;;;34.22;21.70;;;;;;;6.06;85.64;101850.53;5001037;28;20058;-85
2022/03/16 07:58:35;;;;;;;33.08;22.20;;;;;;;6.24;84.70;101875.31;5000245;28;20078;-85
2022/03/16 08:01:07;;;;;;;30.95;21.40;;;;;;;5.93;85.82;101860.84;5001556;28;20054;-85
2022/03/16 08:03:35;;;;;;;30.65;20.92;;;;;;;5.91;85.94;101852.31;5000053;28;20144;-84
2022/03/16 08:06:03;;;;;;;33.40;21.92;;;;;;;5.85;85.47;101837.09;4998820;28;20524;-83
2022/03/16 08:08:31;;;;;;;28.13;21.00;;;;;;;5.82;86.72;101837.28;4998417;28;20057;-84
2022/03/16 08:10:59;;;;;;;32.47;20.45;;;;;;;6.20;85.43;101837.47;4998859;28;20060;-83
2022/03/16 08:13:26;;;;;;;31.25;21.48;;;;;;;6.75;84.24;101859.03;4999947;28;20054;-83
2022/03/16 08:15:54;;;;;;;30.58;21.02;;;;;;;6.90;83.50;101858.03;4999246;28;20066;-85
2022/03/16 08:18:21;;;;;;;29.33;19.75;;;;;;;7.20;82.30;101847.31;4999357;28;20494;-84
2022/03/16 08:20:50;;;;;;;26.50;19.15;;;;;;;7.38;81.45;101847.84;4999020;28;20058;-83
2022/03/16 08:23:18;;;;;;;25.23;18.73;;;;;;;6.89;83.00;101825.97;4999952;28;20084;-85
2022/03/16 08:25:53;;;;;;;26.85;20.42;;;;;;;6.85;83.37;101828.88;5000243;28;20472;-83
2022/03/16 08:28:22;;;;;;;25.83;18.48;;;;;;;6.94;82.53;101829.09;4999698;28;20050;-84
2022/03/16 08:30:49;;;;;;;26.27;18.55;;;;;;;7.23;82.93;101834.09;5000325;28;20046;-84
2022/03/16 08:33:18;;;;;;;23.92;18.35;;;;;;;6.76;83.42;101829.50;5000070;28;20061;-82
2022/03/16 08:35:45;;;;;;;24.67;18.55;;;;;;;6.86;83.40;101825.34;5008051;28;20077;-84
2022/03/16 08:38:11;;;;;;;24.23;17.95;;;;;;;6.73;83.78;101832.28;5001198;28;20112;-82
2022/03/16 08:40:38;;;;;;;23.58;17.67;;;;;;;6.78;83.79;101844.06;4999412;28;20050;-83
2022/03/16 08:43:05;;;;;;;24.70;18.17;;;;;;;6.71;83.43;101834.16;5001951;28;20054;-81
2022/03/16 08:45:31;;;;;;;26.88;18.00;;;;;;;6.66;84.29;101835.31;4999988;28;20429;-82
2022/03/16 08:47:58;;;;;;;24.27;18.20;;;;;;;6.62;83.67;101822.59;4997666;28;20050;-86
2022/03/16 08:50:26;;;;;;;23.88;18.45;;;;;;;6.78;84.04;101835.44;4998256;28;20042;-84
2022/03/16 08:52:53;;;;;;;26.92;18.50;;;;;;;7.04;83.63;101831.09;4999725;28;20046;-85
2022/03/16 08:55:20;;;;;;;24.92;18.15;;;;;;;7.13;82.49;101827.84;4999393;28;20050;-84
2022/03/16 08:57:46;;;;;;;23.58;17.95;;;;;;;7.07;82.34;101833.50;4999673;28;20124;-82
2022/03/16 09:00:15;;;;;;;23.17;17.70;;;;;;;7.66;81.66;101821.50;4998420;28;20050;-83
2022/03/16 09:02:42;;;;;;;27.75;18.98;;;;;;;7.99;80.25;101841.75;4999846;28;20053;-84
2022/03/16 09:05:12;;;;;;;24.85;18.05;;;;;;;7.92;79.18;101832.72;5000415;28;20109;-82
2022/03/16 09:07:54;;;;;;;26.60;18.70;;;;;;;8.00;79.64;101833.00;4999487;28;20432;-84
2022/03/16 09:10:21;;;;;;;24.88;18.65;;;;;;;7.65;80.47;101830.28;5002171;28;20057;-84
2022/03/16 09:13:04;;;;;;;24.05;18.05;;;;;;;7.82;80.46;101816.06;5002084;28;20097;-83
2022/03/16 09:15:31;;;;;;;24.70;18.52;;;;;;;8.19;80.16;101830.72;4999540;28;20047;-84
2022/03/16 09:17:58;;;;;;;22.73;17.75;;;;;;;7.91;80.20;101818.00;4998800;28;20042;-82
2022/03/16 09:20:38;;;;;;;24.27;18.58;;;;;;;8.05;79.25;101832.63;4998929;28;20093;-84
2022/03/16 09:23:06;;;;;;;23.90;18.17;;;;;;;8.09;79.32;101823.66;4997647;28;20050;-82
2022/03/16 09:25:33;;;;;;;22.15;17.13;;;;;;;8.21;78.87;101820.16;4998524;28;20136;-83
2022/03/16 09:27:59;;;;;;;21.08;17.15;;;;;;;8.15;78.48;101823.22;4998712;28;20050;-81
2022/03/16 09:30:28;;;;;;;21.02;16.73;;;;;;;8.23;78.29;101841.75;4998892;28;20318;-83
2022/03/16 09:32:59;;;;;;;23.73;18.00;;;;;;;8.35;78.14;101834.84;4998799;28;20054;-82
2022/03/16 09:35:27;;;;;;;24.67;18.20;;;;;;;8.50;78.22;101831.13;4999441;28;20080;-83
2022/03/16 09:37:54;;;;;;;22.55;16.50;;;;;;;8.57;78.05;101845.34;4998979;28;20073;-82
2022/03/16 09:40:22;;;;;;;22.23;16.83;;;;;;;8.65;77.61;101827.34;4998413;28;20054;-82
2022/03/16 09:42:49;;;;;;;22.73;17.50;;;;;;;8.62;76.98;101811.94;4999000;28;20050;-82
2022/03/16 09:45:19;;;;;;;23.73;15.82;;;;;;;8.91;76.76;101826.25;4996911;28;20472;-82
2022/03/16 09:47:46;;;;;;;21.38;16.00;;;;;;;8.72;77.02;101812.06;4997859;28;20082;-83
2022/03/16 09:50:13;;;;;;;20.30;16.10;;;;;;;9.09;76.65;101824.00;4996921;28;20081;-81
2022/03/16 09:52:41;;;;;;;22.48;15.27;;;;;;;8.99;75.99;101816.03;4999038;28;20082;-83
2022/03/16 09:55:08;;;;;;;20.55;16.35;;;;;;;8.96;76.11;101816.28;4999603;28;20055;-82
2022/03/16 09:57:55;;;;;;;19.95;15.25;;;;;;;9.24;75.15;101806.31;4999081;28;20051;-82
2022/03/16 10:00:26;;;;;;;22.00;15.75;;;;;;;9.47;75.18;101821.03;4999365;28;20090;-83
2022/03/16 10:02:54;;;;;;;21.13;15.85;;;;;;;9.42;74.99;101794.47;4999580;28;20073;-83
2022/03/16 10:05:22;;;;;;;20.65;16.30;;;;;;;9.32;74.27;101809.19;4999209;28;20047;-83
2022/03/16 10:07:54;;;;;;;21.13;15.45;;;;;;;9.60;73.81;101795.59;4999785;28;20050;-86
2022/03/16 10:13:21;;;;;;;19.83;14.65;;;;;;;9.82;71.80;101784.28;5013912;28;20086;-83
2022/03/16 10:15:51;;;;;;;16.65;13.73;;;;;;;10.06;71.21;101778.84;5016811;28;20148;-84
2022/03/16 10:18:25;;;;;;;20.98;13.95;;;;;;;10.15;70.79;101790.34;5018089;28;20042;-82
2022/03/16 10:20:52;;;;;;;17.50;13.95;;;;;;;10.38;70.50;101791.13;5004020;28;20410;-81
2022/03/16 10:23:21;;;;;;;20.00;14.23;;;;;;;10.53;69.31;101795.88;4998965;28;20053;-83
2022/03/16 10:25:51;;;;;;;18.08;14.13;;;;;;;10.56;70.35;101800.03;5000849;28;20039;-82
2022/03/16 10:28:24;;;;;;;18.60;14.23;;;;;;;10.52;69.60;101809.09;4999340;28;20046;-83
2022/03/16 10:30:55;;;;;;;16.88;13.48;;;;;;;10.75;69.56;101802.78;4999633;28;20092;-83
2022/03/16 10:33:23;;;;;;;19.38;14.27;;;;;;;10.71;69.20;101792.72;4997236;28;20421;-80
2022/03/16 10:36:06;;;;;;;17.90;13.52;;;;;;;10.60;69.34;101801.44;5000911;28;20082;-83
2022/03/16 10:38:40;;;;;;;17.27;13.63;;;;;;;10.48;69.67;101786.75;4999713;28;20058;-84
2022/03/16 10:47:00;;;;;;;;;;;;;;;;;;;;;
2022/03/16 10:49:32;;;;;;;17.33;14.35;;;;;;;10.77;68.18;101785.16;5000078;28;20133;-83
2022/03/16 10:52:05;;;;;;;19.57;12.97;;;;;;;10.98;67.87;101772.84;5002824;28;20046;-81
2022/03/16 10:54:33;;;;;;;19.40;14.70;;;;;;;10.89;68.15;101775.44;4998468;28;20085;-80
2022/03/16 10:57:02;;;;;;;19.73;14.25;;;;;;;11.27;67.55;101777.41;4999479;28;20508;-82
2022/03/16 10:59:35;;;;;;;16.95;13.70;;;;;;;11.22;67.67;101777.81;4999487;28;20137;-82
2022/03/16 11:02:12;;;;;;;20.38;14.43;;;;;;;11.26;66.36;101786.22;4995485;28;20042;-84
2022/03/16 11:04:50;;;;;;;18.25;14.05;;;;;;;11.23;67.50;101774.22;4996676;28;20141;-85
2022/03/16 11:07:22;;;;;;;17.10;13.18;;;;;;;11.56;nan;101778.31;5001489;28;20050;-82
2022/03/16 11:09:54;;;;;;;16.75;13.20;;;;;;;11.50;64.98;101778.00;5001991;28;20104;-83
2022/03/16 11:15:41;;;;;;;17.33;12.55;;;;;;;11.43;65.06;101767.22;4995262;28;20532;-86
2022/03/16 11:18:08;;;;;;;16.30;13.10;;;;;;;11.45;64.71;101751.38;4999854;28;20054;-83
2022/03/16 11:37:20;;;;;;;16.48;13.40;;;;;;;11.90;65.69;101751.75;4827700;29;20053;-80
2022/03/16 11:47:23;;;;;;;19.08;14.70;;;;;;;11.62;65.33;101727.13;4934884;29;20059;-81
2022/03/16 12:43:31;;;;;;;;;;;;;;;;;;;;;
2022/03/16 12:49:02;;;;;;;14.98;12.27;;;;;;;12.56;61.56;101673.06;5018758;23;20042;-83
2022/03/16 12:51:36;;;;;;;15.25;12.38;;;;;;;12.55;61.79;101664.38;4984833;28;20055;-83
2022/03/16 12:54:06;;;;;;;15.45;12.55;;;;;;;12.66;61.41;101668.63;4982525;28;20113;-82
2022/03/16 12:56:39;;;;;;;14.50;12.32;;;;;;;12.82;60.39;101681.94;4981493;28;20066;-85
2022/03/16 12:59:09;;;;;;;14.75;12.27;;;;;;;12.76;61.08;101672.00;4982038;28;20133;-85
2022/03/16 13:01:37;;;;;;;14.85;12.63;;;;;;;12.66;61.48;101665.16;4982155;28;20326;-82
2022/03/16 13:04:07;;;;;;;17.80;13.48;;;;;;;12.44;62.14;101655.84;4983647;28;20425;-84
2022/03/16 13:06:35;;;;;;;14.00;11.82;;;;;;;12.57;62.15;101654.53;4981965;28;20055;-83